createdAt,value
2018-09-27T00:01:27.737Z,49.90
2018-09-27T00:03:54.960Z,50.00
2018-09-27T00:06:22.192Z,49.70
2018-09-27T00:08:49.452Z,49.80
2018-09-27T00:11:16.627Z,50.00
2018-09-27T00:13:43.920Z,50.30
2018-09-27T00:16:11.152Z,50.30
2018-09-27T00:18:38.344Z,50.10
2018-09-27T00:21:05.588Z,50.10
2018-09-27T00:23:32.833Z,49.90
2018-09-27T00:26:00.052Z,50.00
2018-09-27T00:28:27.220Z,50.30
2018-09-27T00:30:54.624Z,50.20
2018-09-27T00:33:21.841Z,50.20
2018-09-27T00:35:49.044Z,50.40
2018-09-27T00:38:16.252Z,50.40
2018-09-27T00:40:43.456Z,49.70
2018-09-27T00:43:10.653Z,50.20
2018-09-27T00:45:41.553Z,50.60
2018-09-27T00:48:10.548Z,51.00
2018-09-27T00:50:37.890Z,51.50
2018-09-27T00:53:05.327Z,50.80
2018-09-27T00:55:32.588Z,51.20
2018-09-27T00:57:59.764Z,51.00
2018-09-27T01:00:27.031Z,51.60
2018-09-27T01:02:54.397Z,51.20
2018-09-27T01:05:21.585Z,51.40
2018-09-27T01:07:48.829Z,51.30
2018-09-27T01:10:16.019Z,51.30
2018-09-27T01:12:43.276Z,51.00
2018-09-27T01:15:10.514Z,51.00
2018-09-27T01:17:37.776Z,51.30
2018-09-27T01:20:05.038Z,51.30
2018-09-27T01:22:32.196Z,51.40
2018-09-27T01:24:59.398Z,51.50
2018-09-27T01:27:26.653Z,51.40
2018-09-27T01:29:53.936Z,51.00
2018-09-27T01:32:21.195Z,51.10
2018-09-27T01:34:48.440Z,51.40
2018-09-27T01:37:15.640Z,51.60
2018-09-27T01:39:42.936Z,51.80
2018-09-27T01:42:10.084Z,51.60
2018-09-27T01:44:38.238Z,51.50
2018-09-27T01:47:05.558Z,51.50
2018-09-27T01:49:32.752Z,51.70
2018-09-27T01:51:59.912Z,51.50
2018-09-27T01:54:27.152Z,51.40
2018-09-27T01:56:54.446Z,51.30
2018-09-27T01:59:22.635Z,51.20
2018-09-27T02:01:49.880Z,51.40
2018-09-27T02:04:17.136Z,51.60
2018-09-27T02:06:44.380Z,51.60
2018-09-27T02:09:11.610Z,51.50
2018-09-27T02:11:39.001Z,51.30
2018-09-27T02:14:06.501Z,51.70
2018-09-27T02:16:33.954Z,51.70
2018-09-27T02:19:01.206Z,51.40
2018-09-27T02:21:29.084Z,51.70
2018-09-27T02:23:56.288Z,51.30
2018-09-27T02:26:23.888Z,51.40
2018-09-27T02:28:51.280Z,51.60
2018-09-27T02:31:18.507Z,51.90
2018-09-27T02:33:45.709Z,51.50
2018-09-27T02:36:13.510Z,51.60
2018-09-27T02:38:40.728Z,51.90
2018-09-27T02:41:08.055Z,51.50
2018-09-27T02:43:35.294Z,51.70
2018-09-27T02:46:02.504Z,51.40
2018-09-27T02:48:29.741Z,51.80
2018-09-27T02:50:56.993Z,51.60
2018-09-27T02:53:24.206Z,51.40
2018-09-27T02:55:51.425Z,51.70
2018-09-27T02:58:18.622Z,51.80
2018-09-27T03:00:45.988Z,51.60
2018-09-27T03:03:13.221Z,51.50
2018-09-27T03:05:40.429Z,51.40
2018-09-27T03:08:07.585Z,51.70
2018-09-27T03:10:34.734Z,52.10
2018-09-27T03:13:01.988Z,51.50
2018-09-27T03:15:29.365Z,51.50
2018-09-27T03:17:56.552Z,51.50
2018-09-27T03:20:24.625Z,51.70
2018-09-27T03:22:51.816Z,51.80
2018-09-27T03:25:18.989Z,51.90
2018-09-27T03:27:46.181Z,51.60
2018-09-27T03:30:13.329Z,51.80
2018-09-27T03:32:40.548Z,51.60
2018-09-27T03:35:07.792Z,51.80
2018-09-27T03:37:35.057Z,51.70
2018-09-27T03:40:02.250Z,52.40
2018-09-27T03:42:29.494Z,52.00
2018-09-27T03:44:56.644Z,51.80
2018-09-27T03:47:23.869Z,52.00
2018-09-27T03:49:51.128Z,52.00
2018-09-27T03:52:18.389Z,51.80
2018-09-27T03:54:45.588Z,52.10
2018-09-27T03:57:13.789Z,52.10
2018-09-27T03:59:40.989Z,52.10
2018-09-27T04:02:08.246Z,52.10
2018-09-27T04:04:35.441Z,52.20
2018-09-27T04:07:02.679Z,52.00
2018-09-27T04:09:29.920Z,52.00
2018-09-27T04:11:57.328Z,52.30
2018-09-27T04:14:24.508Z,52.30
2018-09-27T04:16:51.804Z,52.10
2018-09-27T04:19:19.000Z,51.90
2018-09-27T04:21:46.240Z,52.20
2018-09-27T04:24:13.428Z,52.10
2018-09-27T04:26:40.664Z,52.20
2018-09-27T04:29:08.092Z,52.10
2018-09-27T04:31:35.304Z,52.30
2018-09-27T04:34:02.602Z,52.00
2018-09-27T04:36:29.769Z,52.60
2018-09-27T04:38:56.943Z,52.40
2018-09-27T04:41:24.133Z,52.50
2018-09-27T04:43:51.320Z,52.40
2018-09-27T04:46:18.530Z,52.30
2018-09-27T04:48:45.724Z,52.40
2018-09-27T04:51:12.921Z,52.40
2018-09-27T04:53:40.154Z,52.50
2018-09-27T04:56:08.241Z,52.60
2018-09-27T04:58:35.453Z,52.50
2018-09-27T05:01:02.651Z,52.50
2018-09-27T05:03:29.868Z,52.60
2018-09-27T05:05:57.071Z,53.00
2018-09-27T05:08:24.349Z,52.30
2018-09-27T05:10:51.592Z,52.30
2018-09-27T05:13:18.840Z,52.40
2018-09-27T05:15:46.036Z,52.60
2018-09-27T05:18:13.830Z,52.60
2018-09-27T05:20:41.067Z,52.50
2018-09-27T05:23:08.305Z,52.60
2018-09-27T05:25:35.499Z,52.60
2018-09-27T05:28:02.784Z,52.60
2018-09-27T05:30:30.009Z,52.40
2018-09-27T05:32:57.245Z,52.40
2018-09-27T05:35:24.516Z,52.50
2018-09-27T05:37:51.756Z,52.50
2018-09-27T05:40:18.990Z,52.60
2018-09-27T05:42:46.220Z,52.70
2018-09-27T05:45:13.417Z,52.70
2018-09-27T05:47:40.604Z,52.80
2018-09-27T05:50:08.200Z,52.90
2018-09-27T05:52:36.353Z,52.90
2018-09-27T05:55:03.671Z,52.90
2018-09-27T05:57:30.959Z,53.10
2018-09-27T05:59:58.848Z,53.10
2018-09-27T06:02:26.104Z,53.20
2018-09-27T06:04:53.346Z,53.20
2018-09-27T06:07:20.603Z,53.50
2018-09-27T06:09:47.901Z,53.60
2018-09-27T06:12:15.180Z,53.60
2018-09-27T06:14:42.395Z,53.60
2018-09-27T06:17:09.621Z,53.90
2018-09-27T06:19:36.882Z,53.90
2018-09-27T06:22:04.177Z,54.10
2018-09-27T06:24:31.465Z,54.00
2018-09-27T06:26:58.674Z,54.00
2018-09-27T06:29:25.988Z,54.30
2018-09-27T06:31:53.236Z,54.40
2018-09-27T06:34:20.439Z,54.80
2018-09-27T06:36:47.692Z,55.60
2018-09-27T06:39:14.944Z,54.90
2018-09-27T06:41:42.272Z,54.80
2018-09-27T06:44:09.892Z,55.10
2018-09-27T06:46:37.090Z,55.10
2018-09-27T06:49:04.293Z,55.40
2018-09-27T06:51:31.525Z,55.20
2018-09-27T06:53:58.780Z,55.40
2018-09-27T06:56:26.122Z,55.60
2018-09-27T06:58:53.234Z,55.50
2018-09-27T07:01:20.426Z,55.40
2018-09-27T07:03:47.662Z,55.70
2018-09-27T07:06:15.513Z,55.50
2018-09-27T07:08:42.981Z,55.80
2018-09-27T07:11:10.213Z,55.80
2018-09-27T07:13:37.484Z,55.80
2018-09-27T07:16:04.747Z,55.40
2018-09-27T07:18:32.331Z,55.50
2018-09-27T07:20:59.528Z,55.40
2018-09-27T07:23:26.793Z,55.30
2018-09-27T07:25:54.033Z,55.70
2018-09-27T07:28:21.269Z,55.00
2018-09-27T07:30:48.492Z,55.10
2018-09-27T07:33:15.862Z,54.80
2018-09-27T07:35:43.085Z,55.20
2018-09-27T07:38:10.276Z,55.50
2018-09-27T07:40:37.497Z,55.30
2018-09-27T07:43:04.704Z,54.60
2018-09-27T07:45:31.985Z,54.80
2018-09-27T07:47:59.185Z,54.40
2018-09-27T07:50:26.494Z,53.80
2018-09-27T07:52:53.748Z,53.60
2018-09-27T07:55:21.012Z,52.80
2018-09-27T07:57:48.261Z,52.40
2018-09-27T08:00:15.553Z,52.20
2018-09-27T08:02:42.846Z,52.20
2018-09-27T08:05:10.033Z,52.50
2018-09-27T08:07:37.268Z,52.60
2018-09-27T08:10:04.558Z,52.70
2018-09-27T08:12:31.801Z,52.40
2018-09-27T08:14:59.106Z,52.10
2018-09-27T08:17:26.336Z,52.20
2018-09-27T08:19:53.652Z,52.30
2018-09-27T08:22:20.952Z,52.00
2018-09-27T08:24:48.252Z,51.60
2018-09-27T08:27:15.524Z,51.40
2018-09-27T08:29:42.741Z,51.50
2018-09-27T08:32:10.025Z,51.50
2018-09-27T08:34:37.284Z,51.20
2018-09-27T08:37:04.824Z,50.90
2018-09-27T08:39:32.057Z,51.00
2018-09-27T08:41:59.328Z,51.00
2018-09-27T08:44:26.587Z,50.80
2018-09-27T08:46:53.792Z,50.80
2018-09-27T08:49:21.137Z,50.90
2018-09-27T08:51:48.397Z,50.90
2018-09-27T08:54:15.596Z,50.60
2018-09-27T08:56:42.813Z,50.50
2018-09-27T08:59:10.105Z,50.60
2018-09-27T09:01:37.366Z,50.40
2018-09-27T09:04:04.569Z,50.10
2018-09-27T09:06:31.804Z,50.20
2018-09-27T09:08:59.075Z,50.20
2018-09-27T09:11:26.341Z,50.10
2018-09-27T09:13:53.556Z,49.70
2018-09-27T09:16:20.764Z,49.80
2018-09-27T09:18:47.983Z,49.80
2018-09-27T09:21:15.169Z,50.00
2018-09-27T09:23:42.433Z,50.00
2018-09-27T09:26:09.763Z,50.20
2018-09-27T09:28:36.973Z,50.40
2018-09-27T09:31:04.214Z,50.10
2018-09-27T09:33:31.531Z,50.20
2018-09-27T09:35:58.860Z,50.30
2018-09-27T09:38:26.064Z,50.30
2018-09-27T09:40:53.249Z,50.70
2018-09-27T09:43:20.399Z,50.50
2018-09-27T09:45:47.666Z,50.50
2018-09-27T09:48:14.845Z,50.50
2018-09-27T09:50:42.131Z,50.60
2018-09-27T09:53:09.453Z,50.10
2018-09-27T09:55:36.932Z,50.60
2018-09-27T09:58:04.372Z,50.80
2018-09-27T10:00:31.646Z,50.90
2018-09-27T10:02:58.835Z,50.70
2018-09-27T10:05:26.175Z,51.40
2018-09-27T10:07:53.416Z,50.70
2018-09-27T10:10:20.615Z,51.00
2018-09-27T10:12:47.919Z,51.20
2018-09-27T10:15:15.138Z,51.00
2018-09-27T10:17:42.338Z,50.70
2018-09-27T10:20:10.268Z,50.90
2018-09-27T10:22:37.513Z,50.80
2018-09-27T10:25:04.783Z,50.80
2018-09-27T10:27:31.976Z,50.80
2018-09-27T10:29:59.192Z,51.00
2018-09-27T10:32:26.452Z,50.80
2018-09-27T10:34:53.704Z,51.10
2018-09-27T10:37:20.919Z,51.10
2018-09-27T10:39:49.029Z,50.90
2018-09-27T10:42:16.290Z,50.60
2018-09-27T10:44:43.604Z,50.50
2018-09-27T10:47:10.833Z,50.70
2018-09-27T10:49:38.033Z,50.70
2018-09-27T10:52:05.500Z,50.50
2018-09-27T10:54:32.713Z,50.50
2018-09-27T10:56:59.941Z,50.50
2018-09-27T10:59:27.173Z,50.00
2018-09-27T11:01:54.416Z,50.20
2018-09-27T11:04:21.708Z,50.10
2018-09-27T11:06:48.916Z,50.00
2018-09-27T11:09:16.167Z,49.90
2018-09-27T11:11:43.401Z,49.90
2018-09-27T11:14:10.640Z,49.70
2018-09-27T11:16:37.840Z,49.50
2018-09-27T11:19:05.474Z,49.70
2018-09-27T11:21:32.704Z,49.40
2018-09-27T11:23:59.962Z,49.20
2018-09-27T11:26:27.124Z,49.20
2018-09-27T11:29:00.126Z,49.00
2018-09-27T11:32:36.044Z,48.80
2018-09-27T11:35:03.368Z,48.80
2018-09-27T11:37:30.544Z,48.80
2018-09-27T11:39:57.747Z,48.60
2018-09-27T11:42:25.010Z,48.70
2018-09-27T11:44:52.133Z,48.30
2018-09-27T11:47:19.433Z,48.30
2018-09-27T11:49:46.703Z,48.10
2018-09-27T11:52:13.837Z,47.70
2018-09-27T11:54:41.434Z,47.40
2018-09-27T11:57:08.721Z,47.00
2018-09-27T11:59:35.924Z,47.30
2018-09-27T12:02:03.173Z,47.20
2018-09-27T12:04:30.313Z,47.00
2018-09-27T12:06:57.580Z,46.70
2018-09-27T12:09:24.812Z,46.70
2018-09-27T12:11:52.048Z,46.20
2018-09-27T12:14:19.660Z,45.70
2018-09-27T12:16:46.942Z,45.40
2018-09-27T12:19:14.209Z,45.20
2018-09-27T12:21:41.378Z,44.60
2018-09-27T12:24:08.667Z,44.40
2018-09-27T12:26:35.904Z,43.80
2018-09-27T12:29:03.197Z,43.50
2018-09-27T12:31:30.434Z,43.20
2018-09-27T12:33:57.904Z,42.40
2018-09-27T12:36:25.125Z,42.70
2018-09-27T12:38:52.425Z,42.30
2018-09-27T12:41:19.648Z,42.30
2018-09-27T12:43:46.935Z,42.20
2018-09-27T12:46:14.286Z,41.40
2018-09-27T12:48:41.527Z,41.40
2018-09-27T12:51:08.764Z,41.30
2018-09-27T12:53:35.905Z,41.20
2018-09-27T12:56:03.112Z,41.10
2018-09-27T12:58:30.264Z,41.10
2018-09-27T13:00:57.505Z,41.20
2018-09-27T13:03:24.707Z,41.00
2018-09-27T13:05:51.914Z,41.00
2018-09-27T13:08:19.100Z,40.90
2018-09-27T13:10:46.256Z,40.80
2018-09-27T13:13:13.600Z,40.90
2018-09-27T13:15:40.656Z,40.70
2018-09-27T13:18:07.884Z,40.40
2018-09-27T13:20:35.098Z,40.30
2018-09-27T13:23:02.285Z,41.00
2018-09-27T13:25:29.483Z,40.10
2018-09-27T13:27:56.705Z,40.00
2018-09-27T13:30:23.949Z,39.90
2018-09-27T13:32:51.197Z,39.70
2018-09-27T13:35:18.416Z,39.70
2018-09-27T13:37:45.688Z,39.30
2018-09-27T13:40:12.909Z,39.20
2018-09-27T13:42:40.133Z,39.30
2018-09-27T13:45:07.586Z,38.80
2018-09-27T13:47:34.728Z,38.80
2018-09-27T13:50:01.974Z,38.70
2018-09-27T13:52:29.301Z,38.70
2018-09-27T13:54:56.545Z,38.60
2018-09-27T13:57:23.769Z,38.70
2018-09-27T13:59:50.924Z,38.90
2018-09-27T14:02:18.160Z,39.00
2018-09-27T14:04:45.346Z,39.20
2018-09-27T14:07:12.535Z,38.70
2018-09-27T14:09:39.721Z,38.40
2018-09-27T14:12:06.936Z,38.50
2018-09-27T14:14:34.538Z,38.30
2018-09-27T14:17:01.708Z,38.10
2018-09-27T14:19:28.953Z,38.10
2018-09-27T14:21:56.172Z,37.90
2018-09-27T14:24:23.420Z,38.10
2018-09-27T14:26:50.672Z,38.50
2018-09-27T14:29:17.834Z,38.80
2018-09-27T14:31:45.106Z,38.40
2018-09-27T14:34:12.384Z,38.10
2018-09-27T14:36:39.731Z,38.20
2018-09-27T14:39:08.068Z,38.10
2018-09-27T14:41:35.310Z,38.80
2018-09-27T14:44:02.473Z,38.20
2018-09-27T14:46:29.745Z,38.10
2018-09-27T14:48:56.950Z,38.70
2018-09-27T14:51:24.181Z,38.60
2018-09-27T14:53:51.384Z,37.70
2018-09-27T14:56:19.216Z,37.70
2018-09-27T14:58:46.472Z,37.70
2018-09-27T15:01:13.584Z,37.80
2018-09-27T15:03:40.780Z,37.80
2018-09-27T15:06:08.026Z,37.40
2018-09-27T15:08:35.221Z,37.60
2018-09-27T15:11:02.490Z,38.00
2018-09-27T15:13:29.788Z,37.80
2018-09-27T15:15:57.009Z,37.60
2018-09-27T15:18:24.204Z,37.40
2018-09-27T15:20:51.436Z,37.40
2018-09-27T15:23:18.724Z,37.10
2018-09-27T15:25:45.891Z,37.10
2018-09-27T15:28:13.232Z,36.40
2018-09-27T15:30:40.519Z,36.80
2018-09-27T15:33:07.720Z,36.50
2018-09-27T15:35:34.937Z,36.50
2018-09-27T15:38:02.176Z,36.10
2018-09-27T15:40:29.413Z,36.20
2018-09-27T15:42:56.653Z,36.00
2018-09-27T15:45:23.994Z,35.50
2018-09-27T15:47:51.142Z,35.50
2018-09-27T15:50:18.338Z,35.30
2018-09-27T15:52:45.529Z,35.10
2018-09-27T15:55:12.765Z,35.20
2018-09-27T15:57:40.005Z,35.10
2018-09-27T16:00:07.302Z,34.70
2018-09-27T16:02:34.604Z,34.80
2018-09-27T16:05:01.913Z,34.30
2018-09-27T16:07:29.153Z,34.80
2018-09-27T16:09:56.420Z,35.00
2018-09-27T16:12:23.704Z,34.70
2018-09-27T16:14:50.887Z,35.20
2018-09-27T16:17:18.170Z,35.00
2018-09-27T16:19:45.368Z,35.60
2018-09-27T16:22:12.872Z,35.30
2018-09-27T16:24:40.426Z,35.20
2018-09-27T16:27:07.704Z,35.20
2018-09-27T16:29:34.960Z,35.90
2018-09-27T16:32:02.188Z,35.40
2018-09-27T16:34:29.388Z,35.40
2018-09-27T16:36:56.652Z,35.50
2018-09-27T16:39:23.892Z,36.10
2018-09-27T16:41:51.137Z,37.00
2018-09-27T16:44:18.388Z,38.20
2018-09-27T16:46:45.613Z,37.60
2018-09-27T16:49:12.741Z,37.90
2018-09-27T16:51:39.920Z,38.80
2018-09-27T16:54:07.127Z,39.10
2018-09-27T16:56:34.283Z,39.10
2018-09-27T16:59:01.533Z,39.70
2018-09-27T17:01:28.800Z,40.10
2018-09-27T17:03:56.004Z,40.20
2018-09-27T17:06:23.220Z,40.70
2018-09-27T17:08:50.449Z,41.20
2018-09-27T17:11:17.798Z,41.80
2018-09-27T17:13:44.988Z,42.10
2018-09-27T17:16:12.213Z,42.40
2018-09-27T17:18:39.447Z,42.80
2018-09-27T17:21:06.589Z,43.30
2018-09-27T17:23:33.782Z,43.20
2018-09-27T17:26:01.049Z,42.90
2018-09-27T17:28:28.574Z,42.80
2018-09-27T17:30:55.779Z,42.70
2018-09-27T17:33:23.009Z,42.60
2018-09-27T17:35:50.725Z,43.00
2018-09-27T17:38:18.009Z,43.00
2018-09-27T17:40:45.264Z,43.20
2018-09-27T17:43:12.445Z,43.40
2018-09-27T17:45:39.712Z,43.60
2018-09-27T17:50:41.004Z,43.90
2018-09-27T17:53:08.418Z,44.10
2018-09-27T17:55:35.602Z,44.20
2018-09-27T17:58:02.848Z,44.80
2018-09-27T18:00:31.605Z,45.00
2018-09-27T18:02:58.850Z,45.10
2018-09-27T18:05:26.181Z,45.50
2018-09-27T18:07:53.435Z,45.50
2018-09-27T18:10:20.717Z,45.60
2018-09-27T18:12:47.848Z,45.50
2018-09-27T18:15:15.143Z,45.50
2018-09-27T18:17:42.509Z,45.60
2018-09-27T18:20:09.697Z,45.70
2018-09-27T18:22:37.031Z,45.60
2018-09-27T18:25:04.270Z,45.60
2018-09-27T18:27:31.604Z,45.80
2018-09-27T18:29:58.865Z,46.20
2018-09-27T18:32:26.265Z,46.00
2018-09-27T18:34:53.518Z,46.00
2018-09-27T18:37:20.837Z,46.20
2018-09-27T18:39:48.026Z,46.30
2018-09-27T18:42:15.239Z,46.60
2018-09-27T18:44:42.449Z,46.40
2018-09-27T18:47:09.690Z,46.40
2018-09-27T18:49:36.845Z,46.70
2018-09-27T18:52:04.060Z,47.10
2018-09-27T18:54:31.232Z,47.00
2018-09-27T18:56:58.420Z,47.30
2018-09-27T18:59:25.664Z,47.40
2018-09-27T19:01:53.008Z,47.60
2018-09-27T19:04:20.284Z,47.80
2018-09-27T19:06:47.585Z,48.00
2018-09-27T19:09:14.808Z,48.10
2018-09-27T19:11:41.977Z,48.40
2018-09-27T19:14:09.205Z,48.60
2018-09-27T19:16:36.471Z,48.70
2018-09-27T19:19:03.724Z,49.00
2018-09-27T19:21:30.869Z,49.20
2018-09-27T19:23:58.092Z,49.30
2018-09-27T19:26:25.300Z,49.30
2018-09-27T19:28:52.465Z,49.60
2018-09-27T19:31:19.640Z,49.70
2018-09-27T19:33:46.857Z,49.90
2018-09-27T19:36:14.096Z,50.00
2018-09-27T19:38:41.327Z,50.40
2018-09-27T19:41:08.510Z,50.70
2018-09-27T19:43:35.745Z,50.70
2018-09-27T19:46:02.936Z,50.90
2018-09-27T19:48:30.140Z,51.10
2018-09-27T19:50:57.360Z,51.30
2018-09-27T19:53:24.537Z,51.50
2018-09-27T19:55:51.688Z,52.20
2018-09-27T19:58:18.925Z,51.80
2018-09-27T20:00:46.115Z,51.80
2018-09-27T20:03:13.335Z,52.10
2018-09-27T20:05:40.568Z,52.10
2018-09-27T20:08:07.805Z,52.30
2018-09-27T20:10:35.053Z,52.40
2018-09-27T20:13:02.274Z,52.60
2018-09-27T20:15:29.509Z,52.70
2018-09-27T20:17:56.736Z,52.90
2018-09-27T20:20:23.969Z,53.10
2018-09-27T20:22:51.164Z,53.90
2018-09-27T20:25:18.336Z,53.40
2018-09-27T20:27:45.536Z,53.60
2018-09-27T20:30:12.777Z,53.60
2018-09-27T20:32:39.972Z,53.90
2018-09-27T20:35:07.176Z,54.10
2018-09-27T20:37:34.367Z,54.20
2018-09-27T20:40:01.595Z,54.30
2018-09-27T20:42:28.785Z,54.40
2018-09-27T20:44:56.000Z,54.60
2018-09-27T20:47:23.176Z,54.70
2018-09-27T20:49:50.357Z,54.90
2018-09-27T20:52:17.736Z,55.00
2018-09-27T20:54:44.916Z,55.10
2018-09-27T20:57:12.216Z,55.10
2018-09-27T20:59:39.400Z,55.40
2018-09-27T21:02:06.573Z,55.20
2018-09-27T21:04:33.838Z,55.50
2018-09-27T21:07:01.033Z,55.40
2018-09-27T21:09:28.244Z,55.50
2018-09-27T21:11:55.379Z,55.60
2018-09-27T21:14:22.552Z,55.70
2018-09-27T21:16:49.761Z,55.50
2018-09-27T21:19:17.020Z,55.80
2018-09-27T21:21:44.140Z,56.00
2018-09-27T21:24:11.314Z,56.20
2018-09-27T21:26:38.518Z,56.40
2018-09-27T21:29:05.776Z,56.70
2018-09-27T21:31:32.944Z,56.50
2018-09-27T21:34:00.180Z,56.40
2018-09-27T21:36:27.324Z,56.50
2018-09-27T21:38:54.525Z,56.30
2018-09-27T21:41:21.897Z,56.50
2018-09-27T21:43:49.291Z,56.50
2018-09-27T21:46:16.557Z,56.40
2018-09-27T21:48:43.717Z,56.60
2018-09-27T21:51:10.896Z,56.80
2018-09-27T21:53:38.100Z,56.80
2018-09-27T21:56:05.329Z,56.90
2018-09-27T21:58:32.552Z,56.90
2018-09-27T22:00:59.788Z,56.80
2018-09-27T22:03:26.956Z,56.90
2018-09-27T22:05:54.212Z,57.20
2018-09-27T22:08:21.376Z,57.20
2018-09-27T22:10:48.755Z,57.20
2018-09-27T22:13:16.112Z,57.20
2018-09-27T22:15:43.361Z,57.30
2018-09-27T22:18:10.637Z,57.30
2018-09-27T22:20:37.828Z,57.40
2018-09-27T22:23:05.025Z,57.20
2018-09-27T22:25:32.236Z,57.30
2018-09-27T22:27:59.640Z,57.20
2018-09-27T22:30:26.816Z,57.40
2018-09-27T22:32:54.029Z,57.60
2018-09-27T22:35:21.270Z,57.60
2018-09-27T22:37:48.400Z,57.60
2018-09-27T22:40:15.636Z,57.80
2018-09-27T22:42:42.858Z,57.70
2018-09-27T22:45:10.084Z,57.70
2018-09-27T22:47:37.226Z,57.90
2018-09-27T22:50:04.528Z,57.70
2018-09-27T22:52:31.755Z,58.00
2018-09-27T22:54:58.960Z,57.80
2018-09-27T22:57:26.183Z,57.90
2018-09-27T22:59:53.446Z,58.00
2018-09-27T23:02:20.676Z,58.00
2018-09-27T23:04:47.983Z,57.80
2018-09-27T23:07:15.124Z,57.80
2018-09-27T23:09:42.316Z,58.00
2018-09-27T23:12:09.492Z,58.10
2018-09-27T23:14:36.713Z,58.10
2018-09-27T23:17:03.961Z,58.10
2018-09-27T23:19:31.121Z,58.20
2018-09-27T23:21:58.376Z,58.30
2018-09-27T23:24:25.580Z,58.10
2018-09-27T23:26:52.772Z,58.40
2018-09-27T23:29:19.958Z,58.40
2018-09-27T23:31:47.250Z,58.40
2018-09-27T23:34:14.440Z,58.40
2018-09-27T23:36:41.729Z,58.50
2018-09-27T23:39:09.793Z,58.40
2018-09-27T23:41:37.358Z,58.40
2018-09-27T23:44:04.589Z,58.80
2018-09-27T23:46:31.800Z,58.60
2018-09-27T23:48:59.004Z,58.40
2018-09-27T23:51:26.258Z,58.60
2018-09-27T23:53:53.444Z,58.60
2018-09-27T23:56:20.636Z,58.80
2018-09-27T23:58:47.877Z,58.80
